createdAt,value
2023-04-16T00:00:59.746Z,512.00
2023-04-16T00:01:59.795Z,514.00
2023-04-16T00:03:00.063Z,514.00
2023-04-16T00:04:00.095Z,511.00
2023-04-16T00:04:59.686Z,510.00
2023-04-16T00:05:59.669Z,509.00
2023-04-16T00:06:59.661Z,509.00
2023-04-16T00:07:59.647Z,507.00
2023-04-16T00:08:59.650Z,506.00
2023-04-16T00:09:59.619Z,507.00
2023-04-16T00:10:59.644Z,505.00
2023-04-16T00:11:59.604Z,507.00
2023-04-16T00:12:59.604Z,510.00
2023-04-16T00:13:59.601Z,512.00
2023-04-16T00:14:59.553Z,514.00
2023-04-16T00:15:59.565Z,514.00
2023-04-16T00:16:59.579Z,510.00
2023-04-16T00:17:59.603Z,514.00
2023-04-16T00:18:59.510Z,516.00
2023-04-16T00:19:59.480Z,516.00
2023-04-16T00:20:59.507Z,518.00
2023-04-16T00:21:59.458Z,520.00
2023-04-16T00:22:59.451Z,522.00
2023-04-16T00:23:59.436Z,523.00
2023-04-16T00:24:59.429Z,522.00
2023-04-16T00:25:59.438Z,522.00
2023-04-16T00:26:59.410Z,522.00
2023-04-16T00:27:59.411Z,522.00
2023-04-16T00:28:59.388Z,521.00
2023-04-16T00:29:59.393Z,521.00
2023-04-16T00:30:59.409Z,518.00
2023-04-16T00:31:59.340Z,517.00
2023-04-16T00:32:59.345Z,516.00
2023-04-16T00:33:59.358Z,513.00
2023-04-16T00:34:59.297Z,510.00
2023-04-16T00:35:59.297Z,511.00
2023-04-16T00:36:59.287Z,514.00
2023-04-16T00:37:59.292Z,520.00
2023-04-16T00:38:59.300Z,521.00
2023-04-16T00:39:59.298Z,520.00
2023-04-16T00:40:59.341Z,518.00
2023-04-16T00:41:59.394Z,518.00
2023-04-16T00:42:59.362Z,519.00
2023-04-16T00:43:59.376Z,523.00
2023-04-16T00:44:59.408Z,522.00
2023-04-16T00:45:59.460Z,521.00
2023-04-16T00:46:59.407Z,520.00
2023-04-16T00:48:00.547Z,519.00
2023-04-16T00:48:59.434Z,520.00
2023-04-16T00:49:59.424Z,520.00
2023-04-16T00:50:59.449Z,519.00
2023-04-16T00:51:59.420Z,514.00
2023-04-16T00:52:59.458Z,515.00
2023-04-16T00:53:59.496Z,517.00
2023-04-16T00:54:59.515Z,517.00
2023-04-16T00:55:59.503Z,519.00
2023-04-16T00:56:59.537Z,517.00
2023-04-16T00:57:59.517Z,514.00
2023-04-16T00:58:59.536Z,514.00
2023-04-16T00:59:59.521Z,515.00
2023-04-16T01:00:59.538Z,516.00
2023-04-16T01:01:59.701Z,519.00
2023-04-16T01:02:59.694Z,521.00
2023-04-16T01:03:59.713Z,522.00
2023-04-16T01:04:59.574Z,521.00
2023-04-16T01:05:59.579Z,519.00
2023-04-16T01:06:59.582Z,517.00
2023-04-16T01:07:59.575Z,516.00
2023-04-16T01:08:59.586Z,516.00
2023-04-16T01:09:59.598Z,515.00
2023-04-16T01:10:59.602Z,513.00
2023-04-16T01:11:59.635Z,513.00
2023-04-16T01:12:59.653Z,515.00
2023-04-16T01:13:59.684Z,516.00
2023-04-16T01:14:59.712Z,515.00
2023-04-16T01:15:59.782Z,516.00
2023-04-16T01:16:59.735Z,517.00
2023-04-16T01:17:59.876Z,524.00
2023-04-16T01:18:59.716Z,515.00
2023-04-16T01:19:59.759Z,513.00
2023-04-16T01:20:59.754Z,515.00
2023-04-16T01:21:59.795Z,514.00
2023-04-16T01:22:59.762Z,513.00
2023-04-16T01:23:59.772Z,511.00
2023-04-16T01:24:59.751Z,515.00
2023-04-16T01:25:59.769Z,514.00
2023-04-16T01:26:59.792Z,510.00
2023-04-16T01:27:59.792Z,512.00
2023-04-16T01:28:59.858Z,505.00
2023-04-16T01:29:59.907Z,506.00
2023-04-16T01:30:59.992Z,508.00
2023-04-16T01:32:00.036Z,509.00
2023-04-16T01:33:00.065Z,510.00
2023-04-16T01:34:00.036Z,508.00
2023-04-16T01:35:00.033Z,508.00
2023-04-16T01:36:00.065Z,509.00
2023-04-16T01:37:00.148Z,512.00
2023-04-16T01:38:00.151Z,513.00
2023-04-16T01:39:00.179Z,513.00
2023-04-16T01:40:00.201Z,514.00
2023-04-16T01:41:00.259Z,515.00
2023-04-16T01:42:00.285Z,515.00
2023-04-16T01:43:00.266Z,516.00
2023-04-16T01:44:00.290Z,518.00
2023-04-16T01:45:00.278Z,519.00
2023-04-16T01:46:00.296Z,520.00
2023-04-16T01:47:00.431Z,521.00
2023-04-16T01:48:00.336Z,525.00
2023-04-16T01:49:00.319Z,525.00
2023-04-16T01:50:00.358Z,525.00
2023-04-16T01:51:00.335Z,525.00
2023-04-16T01:52:00.332Z,523.00
2023-04-16T01:53:00.349Z,526.00
2023-04-16T01:54:00.354Z,525.00
2023-04-16T01:55:00.408Z,524.00
2023-04-16T01:56:00.393Z,525.00
2023-04-16T01:57:00.403Z,526.00
2023-04-16T01:58:00.387Z,524.00
2023-04-16T01:59:00.418Z,523.00
2023-04-16T02:00:00.418Z,522.00
2023-04-16T02:01:00.532Z,518.00
2023-04-16T02:02:00.580Z,517.00
2023-04-16T02:03:00.691Z,517.00
2023-04-16T02:04:00.650Z,517.00
2023-04-16T02:05:00.440Z,517.00
2023-04-16T02:06:00.477Z,516.00
2023-04-16T02:07:00.444Z,517.00
2023-04-16T02:08:00.472Z,514.00
2023-04-16T02:09:00.488Z,514.00
2023-04-16T02:10:00.511Z,515.00
2023-04-16T02:11:00.495Z,519.00
2023-04-16T02:12:00.516Z,520.00
2023-04-16T02:13:00.531Z,522.00
2023-04-16T02:14:00.572Z,521.00
2023-04-16T02:15:00.601Z,519.00
2023-04-16T02:16:00.720Z,519.00
2023-04-16T02:17:00.695Z,517.00
2023-04-16T02:18:00.814Z,514.00
2023-04-16T02:19:00.802Z,511.00
2023-04-16T02:20:00.909Z,514.00
2023-04-16T02:21:00.899Z,520.00
2023-04-16T02:22:00.965Z,518.00
2023-04-16T02:23:00.993Z,517.00
2023-04-16T02:24:01.020Z,517.00
2023-04-16T02:25:01.108Z,515.00
2023-04-16T02:26:01.121Z,513.00
2023-04-16T02:27:01.170Z,513.00
2023-04-16T02:28:01.216Z,513.00
2023-04-16T02:29:01.255Z,513.00
2023-04-16T02:30:01.387Z,514.00
2023-04-16T02:31:01.340Z,514.00
2023-04-16T02:32:01.396Z,514.00
2023-04-16T02:33:01.449Z,512.00
2023-04-16T02:34:01.373Z,513.00
2023-04-16T02:35:01.452Z,513.00
2023-04-16T02:36:01.498Z,513.00
2023-04-16T02:37:01.501Z,512.00
2023-04-16T02:38:01.617Z,513.00
2023-04-16T02:39:01.600Z,514.00
2023-04-16T02:40:01.725Z,515.00
2023-04-16T02:41:01.733Z,517.00
2023-04-16T02:42:01.724Z,518.00
2023-04-16T02:43:01.783Z,516.00
2023-04-16T02:44:01.857Z,515.00
2023-04-16T02:45:01.881Z,513.00
2023-04-16T02:46:02.052Z,514.00
2023-04-16T02:47:01.939Z,511.00
2023-04-16T02:48:02.138Z,512.00
2023-04-16T02:49:02.052Z,513.00
2023-04-16T02:50:02.081Z,513.00
2023-04-16T02:51:02.140Z,511.00
2023-04-16T02:52:02.229Z,514.00
2023-04-16T02:53:02.208Z,514.00
2023-04-16T02:54:02.283Z,513.00
2023-04-16T02:55:02.298Z,512.00
2023-04-16T02:56:02.339Z,512.00
2023-04-16T02:57:02.396Z,512.00
2023-04-16T02:58:02.418Z,510.00
2023-04-16T02:59:02.474Z,510.00
2023-04-16T03:00:02.504Z,511.00
2023-04-16T03:01:02.601Z,511.00
2023-04-16T03:02:02.555Z,512.00
2023-04-16T03:03:02.646Z,512.00
2023-04-16T03:04:02.629Z,512.00
2023-04-16T03:05:02.636Z,515.00
2023-04-16T03:06:02.671Z,518.00
2023-04-16T03:07:02.960Z,517.00
2023-04-16T03:08:02.704Z,519.00
2023-04-16T03:09:02.714Z,519.00
2023-04-16T03:10:02.729Z,517.00
2023-04-16T03:11:02.731Z,517.00
2023-04-16T03:12:02.707Z,516.00
2023-04-16T03:13:02.743Z,517.00
2023-04-16T03:14:02.759Z,516.00
2023-04-16T03:15:02.834Z,519.00
2023-04-16T03:16:02.887Z,518.00
2023-04-16T03:17:02.803Z,516.00
2023-04-16T03:18:02.895Z,516.00
2023-04-16T03:19:02.927Z,517.00
2023-04-16T03:20:02.942Z,516.00
2023-04-16T03:21:02.969Z,516.00
2023-04-16T03:22:03.005Z,516.00
2023-04-16T03:23:03.032Z,518.00
2023-04-16T03:24:03.052Z,520.00
2023-04-16T03:25:03.070Z,519.00
2023-04-16T03:26:03.131Z,518.00
2023-04-16T03:27:03.117Z,518.00
2023-04-16T03:28:03.127Z,518.00
2023-04-16T03:29:03.159Z,517.00
2023-04-16T03:30:03.200Z,519.00
2023-04-16T03:31:03.271Z,520.00
2023-04-16T03:32:03.258Z,519.00
2023-04-16T03:33:03.275Z,518.00
2023-04-16T03:34:03.308Z,517.00
2023-04-16T03:35:03.334Z,517.00
2023-04-16T03:36:03.352Z,517.00
2023-04-16T03:37:03.377Z,515.00
2023-04-16T03:38:03.429Z,515.00
2023-04-16T03:39:03.431Z,509.00
2023-04-16T03:40:03.464Z,521.00
2023-04-16T03:41:03.476Z,518.00
2023-04-16T03:42:03.517Z,520.00
2023-04-16T03:43:03.651Z,520.00
2023-04-16T03:44:03.594Z,521.00
2023-04-16T03:45:03.651Z,522.00
2023-04-16T03:46:03.680Z,522.00
2023-04-16T03:47:03.693Z,522.00
2023-04-16T03:48:03.683Z,520.00
2023-04-16T03:49:03.682Z,520.00
2023-04-16T03:50:03.713Z,518.00
2023-04-16T03:51:03.729Z,517.00
2023-04-16T03:52:03.780Z,517.00
2023-04-16T03:53:03.798Z,516.00
2023-04-16T03:54:03.809Z,515.00
2023-04-16T03:55:03.808Z,517.00
2023-04-16T03:56:03.784Z,515.00
2023-04-16T03:57:03.811Z,513.00
2023-04-16T03:58:03.847Z,512.00
2023-04-16T03:59:04.429Z,513.00
2023-04-16T04:00:03.848Z,513.00
2023-04-16T04:01:03.856Z,514.00
2023-04-16T04:02:03.990Z,513.00
2023-04-16T04:03:04.277Z,511.00
2023-04-16T04:04:04.290Z,512.00
2023-04-16T04:05:04.055Z,517.00
2023-04-16T04:06:03.882Z,519.00
2023-04-16T04:07:03.909Z,520.00
2023-04-16T04:08:03.963Z,519.00
2023-04-16T04:09:04.053Z,516.00
2023-04-16T04:10:04.098Z,515.00
2023-04-16T04:11:04.137Z,515.00
2023-04-16T04:12:04.164Z,511.00
2023-04-16T04:13:04.170Z,511.00
2023-04-16T04:14:04.238Z,511.00
2023-04-16T04:15:04.208Z,508.00
2023-04-16T04:16:04.267Z,506.00
2023-04-16T04:17:04.249Z,505.00
2023-04-16T04:18:04.317Z,505.00
2023-04-16T04:19:04.295Z,504.00
2023-04-16T04:20:04.319Z,503.00
2023-04-16T04:21:04.333Z,505.00
2023-04-16T04:22:04.371Z,501.00
2023-04-16T04:23:04.432Z,500.00
2023-04-16T04:24:04.467Z,503.00
2023-04-16T04:25:04.519Z,507.00
2023-04-16T04:26:04.555Z,507.00
2023-04-16T04:27:04.536Z,510.00
2023-04-16T04:28:04.567Z,514.00
2023-04-16T04:29:04.581Z,517.00
2023-04-16T04:30:04.615Z,517.00
2023-04-16T04:31:04.642Z,521.00
2023-04-16T04:32:04.694Z,517.00
2023-04-16T04:33:04.768Z,516.00
2023-04-16T04:34:04.782Z,515.00
2023-04-16T04:35:04.826Z,515.00
2023-04-16T04:36:04.886Z,516.00
2023-04-16T04:37:04.929Z,518.00
2023-04-16T04:38:04.933Z,516.00
2023-04-16T04:39:04.962Z,515.00
2023-04-16T04:40:04.993Z,515.00
2023-04-16T04:41:05.037Z,514.00
2023-04-16T04:42:05.064Z,514.00
2023-04-16T04:43:05.108Z,514.00
2023-04-16T04:44:05.158Z,515.00
2023-04-16T04:45:05.221Z,512.00
2023-04-16T04:46:05.306Z,510.00
2023-04-16T04:47:05.296Z,509.00
2023-04-16T04:48:05.391Z,512.00
2023-04-16T04:49:05.386Z,515.00
2023-04-16T04:50:05.438Z,515.00
2023-04-16T04:51:05.585Z,513.00
2023-04-16T04:52:05.550Z,515.00
2023-04-16T04:53:05.583Z,515.00
2023-04-16T04:54:05.626Z,518.00
2023-04-16T04:55:05.658Z,518.00
2023-04-16T04:56:12.095Z,517.00
2023-04-16T04:57:05.699Z,517.00
2023-04-16T04:58:05.688Z,516.00
2023-04-16T04:59:05.707Z,516.00
2023-04-16T05:00:05.667Z,513.00
2023-04-16T05:01:05.721Z,512.00
2023-04-16T05:02:05.707Z,511.00
2023-04-16T05:03:05.687Z,508.00
2023-04-16T05:04:05.767Z,514.00
2023-04-16T05:05:05.654Z,514.00
2023-04-16T05:06:05.640Z,515.00
2023-04-16T05:07:05.621Z,513.00
2023-04-16T05:08:05.630Z,511.00
2023-04-16T05:09:05.623Z,511.00
2023-04-16T05:10:05.593Z,509.00
2023-04-16T05:11:05.590Z,511.00
2023-04-16T05:12:05.588Z,508.00
2023-04-16T05:13:06.402Z,508.00
2023-04-16T05:14:05.554Z,510.00
2023-04-16T05:15:05.537Z,512.00
2023-04-16T05:16:05.525Z,513.00
2023-04-16T05:17:05.535Z,511.00
2023-04-16T05:18:06.074Z,511.00
2023-04-16T05:19:05.482Z,508.00
2023-04-16T05:20:05.474Z,511.00
2023-04-16T05:21:05.475Z,512.00
2023-04-16T05:22:05.512Z,513.00
2023-04-16T05:23:05.445Z,513.00
2023-04-16T05:24:05.432Z,516.00
2023-04-16T05:25:05.434Z,519.00
2023-04-16T05:26:05.425Z,521.00
2023-04-16T05:27:05.462Z,523.00
2023-04-16T05:28:05.433Z,519.00
2023-04-16T05:29:05.450Z,523.00
2023-04-16T05:30:05.470Z,524.00
2023-04-16T05:31:05.568Z,524.00
2023-04-16T05:32:05.550Z,521.00
2023-04-16T05:33:05.620Z,520.00
2023-04-16T05:34:05.725Z,519.00
2023-04-16T05:35:05.776Z,518.00
2023-04-16T05:36:05.853Z,522.00
2023-04-16T05:37:05.915Z,520.00
2023-04-16T05:38:05.961Z,519.00
2023-04-16T05:39:05.995Z,517.00
2023-04-16T05:40:05.982Z,519.00
2023-04-16T05:41:06.000Z,520.00
2023-04-16T05:42:06.063Z,517.00
2023-04-16T05:43:06.129Z,516.00
2023-04-16T05:44:06.182Z,514.00
2023-04-16T05:45:06.227Z,517.00
2023-04-16T05:46:06.296Z,516.00
2023-04-16T05:47:06.307Z,514.00
2023-04-16T05:48:06.324Z,512.00
2023-04-16T05:49:06.348Z,510.00
2023-04-16T05:50:06.413Z,512.00
2023-04-16T05:51:06.434Z,513.00
2023-04-16T05:52:06.445Z,513.00
2023-04-16T05:53:06.471Z,512.00
2023-04-16T05:54:06.488Z,516.00
2023-04-16T05:55:06.540Z,515.00
2023-04-16T05:56:06.593Z,512.00
2023-04-16T05:57:06.653Z,514.00
2023-04-16T05:58:06.694Z,514.00
2023-04-16T05:59:06.820Z,515.00
2023-04-16T06:00:06.738Z,511.00
2023-04-16T06:01:06.825Z,518.00
2023-04-16T06:02:06.907Z,513.00
2023-04-16T06:03:07.331Z,512.00
2023-04-16T06:04:07.399Z,513.00
2023-04-16T06:05:07.206Z,511.00
2023-04-16T06:06:07.247Z,513.00
2023-04-16T06:07:07.275Z,513.00
2023-04-16T06:08:07.353Z,513.00
2023-04-16T06:09:07.607Z,514.00
2023-04-16T06:10:07.441Z,513.00
2023-04-16T06:11:07.504Z,513.00
2023-04-16T06:12:07.566Z,511.00
2023-04-16T06:13:07.588Z,512.00
2023-04-16T06:14:07.623Z,509.00
2023-04-16T06:15:07.631Z,510.00
2023-04-16T06:16:07.618Z,511.00
2023-04-16T06:17:07.612Z,512.00
2023-04-16T06:18:07.644Z,512.00
2023-04-16T06:19:07.874Z,514.00
2023-04-16T06:20:07.647Z,513.00
2023-04-16T06:21:07.702Z,513.00
2023-04-16T06:22:07.751Z,513.00
2023-04-16T06:23:07.758Z,514.00
2023-04-16T06:24:07.794Z,512.00
2023-04-16T06:25:07.803Z,509.00
2023-04-16T06:26:07.831Z,499.00
2023-04-16T06:27:07.847Z,511.00
2023-04-16T06:28:07.874Z,512.00
2023-04-16T06:29:08.175Z,510.00
2023-04-16T06:30:07.919Z,509.00
2023-04-16T06:31:08.003Z,506.00
2023-04-16T06:32:08.004Z,509.00
2023-04-16T06:33:08.952Z,506.00
2023-04-16T06:34:08.093Z,504.00
2023-04-16T06:35:08.105Z,504.00
2023-04-16T06:36:08.121Z,505.00
2023-04-16T06:37:10.503Z,504.00
2023-04-16T06:38:08.095Z,508.00
2023-04-16T06:39:08.257Z,510.00
2023-04-16T06:40:08.008Z,509.00
2023-04-16T06:41:07.970Z,511.00
2023-04-16T06:42:07.943Z,509.00
2023-04-16T06:43:07.952Z,508.00
2023-04-16T06:44:07.894Z,508.00
2023-04-16T06:45:07.851Z,508.00
2023-04-16T06:46:07.815Z,515.00
2023-04-16T06:47:07.861Z,517.00
2023-04-16T06:48:07.847Z,518.00
2023-04-16T06:49:07.836Z,519.00
2023-04-16T06:50:07.700Z,521.00
2023-04-16T06:51:07.674Z,518.00
2023-04-16T06:52:07.637Z,516.00
2023-04-16T06:53:07.618Z,513.00
2023-04-16T06:54:07.611Z,513.00
2023-04-16T06:55:07.593Z,506.00
2023-04-16T06:56:07.494Z,511.00
2023-04-16T06:57:07.476Z,513.00
2023-04-16T06:58:07.425Z,514.00
2023-04-16T06:59:07.609Z,513.00
2023-04-16T07:00:07.391Z,511.00
2023-04-16T07:01:07.405Z,510.00
2023-04-16T07:02:07.372Z,509.00
2023-04-16T07:03:07.552Z,513.00
2023-04-16T07:04:07.362Z,503.00
2023-04-16T07:05:07.322Z,506.00
2023-04-16T07:06:07.294Z,504.00
2023-04-16T07:07:07.315Z,502.00
2023-04-16T07:08:07.343Z,503.00
2023-04-16T07:09:07.423Z,502.00
2023-04-16T07:10:07.393Z,503.00
2023-04-16T07:11:07.448Z,499.00
2023-04-16T07:12:07.374Z,507.00
2023-04-16T07:13:07.331Z,501.00
2023-04-16T07:14:07.333Z,506.00
2023-04-16T07:15:07.352Z,507.00
2023-04-16T07:16:07.417Z,512.00
2023-04-16T07:17:07.410Z,503.00
2023-04-16T07:18:07.502Z,517.00
2023-04-16T07:19:07.691Z,501.00
2023-04-16T07:20:07.566Z,509.00
2023-04-16T07:21:07.620Z,510.00
2023-04-16T07:22:07.657Z,504.00
2023-04-16T07:23:07.687Z,506.00
2023-04-16T07:24:07.713Z,501.00
2023-04-16T07:25:07.725Z,514.00
2023-04-16T07:26:07.770Z,513.00
2023-04-16T07:27:07.747Z,511.00
2023-04-16T07:28:07.721Z,510.00
2023-04-16T07:29:07.858Z,508.00
2023-04-16T07:30:07.718Z,506.00
2023-04-16T07:31:07.737Z,502.00
2023-04-16T07:32:07.816Z,506.00
2023-04-16T07:33:07.823Z,503.00
2023-04-16T07:34:07.747Z,502.00
2023-04-16T07:35:07.723Z,503.00
2023-04-16T07:36:07.735Z,504.00
2023-04-16T07:37:07.700Z,503.00
2023-04-16T07:38:07.726Z,503.00
2023-04-16T07:39:08.003Z,506.00
2023-04-16T07:40:07.795Z,503.00
2023-04-16T07:41:07.802Z,500.00
2023-04-16T07:42:07.830Z,497.00
2023-04-16T07:43:07.821Z,498.00
2023-04-16T07:44:07.822Z,493.00
2023-04-16T07:45:07.929Z,494.00
2023-04-16T07:46:07.935Z,493.00
2023-04-16T07:47:07.902Z,493.00
2023-04-16T07:48:07.901Z,489.00
2023-04-16T07:49:08.098Z,490.00
2023-04-16T07:50:07.927Z,488.00
2023-04-16T07:51:07.939Z,491.00
2023-04-16T07:52:07.950Z,495.00
2023-04-16T07:53:08.039Z,494.00
2023-04-16T07:54:07.956Z,492.00
2023-04-16T07:55:07.945Z,491.00
2023-04-16T07:56:07.915Z,484.00
2023-04-16T07:57:07.891Z,491.00
2023-04-16T07:58:07.872Z,492.00
2023-04-16T07:59:20.900Z,491.00
2023-04-16T08:00:07.760Z,492.00
2023-04-16T08:01:07.695Z,491.00
2023-04-16T08:02:07.706Z,491.00
2023-04-16T08:03:07.891Z,502.00
2023-04-16T08:04:07.673Z,488.00
2023-04-16T08:05:07.529Z,490.00
2023-04-16T08:06:07.450Z,491.00
2023-04-16T08:07:07.386Z,488.00
2023-04-16T08:08:07.342Z,489.00
2023-04-16T08:09:07.432Z,490.00
2023-04-16T08:10:07.277Z,487.00
2023-04-16T08:11:07.196Z,488.00
2023-04-16T08:12:07.126Z,487.00
2023-04-16T08:13:07.090Z,486.00
2023-04-16T08:14:07.054Z,484.00
2023-04-16T08:15:06.981Z,488.00
2023-04-16T08:16:06.943Z,490.00
2023-04-16T08:17:06.847Z,494.00
2023-04-16T08:18:06.847Z,495.00
2023-04-16T08:19:06.737Z,495.00
2023-04-16T08:20:06.665Z,495.00
2023-04-16T08:21:06.607Z,496.00
2023-04-16T08:22:06.531Z,492.00
2023-04-16T08:23:06.471Z,494.00
2023-04-16T08:24:06.406Z,491.00
2023-04-16T08:25:06.343Z,496.00
2023-04-16T08:26:06.321Z,496.00
2023-04-16T08:27:17.749Z,497.00
2023-04-16T08:28:06.235Z,497.00
2023-04-16T08:29:06.154Z,498.00
2023-04-16T08:30:06.114Z,496.00
2023-04-16T08:31:06.052Z,496.00
2023-04-16T08:32:05.960Z,498.00
2023-04-16T08:33:05.998Z,499.00
2023-04-16T08:34:05.933Z,497.00
2023-04-16T08:35:05.769Z,494.00
2023-04-16T08:36:05.720Z,492.00
2023-04-16T08:37:05.707Z,491.00
2023-04-16T08:38:05.588Z,493.00
2023-04-16T08:39:05.524Z,468.00
2023-04-16T08:40:05.450Z,488.00
2023-04-16T08:41:05.396Z,488.00
2023-04-16T08:42:05.316Z,490.00
2023-04-16T08:43:05.228Z,488.00
2023-04-16T08:44:05.156Z,490.00
2023-04-16T08:45:05.076Z,491.00
2023-04-16T08:46:05.083Z,492.00
2023-04-16T08:47:05.012Z,489.00
2023-04-16T08:48:04.861Z,493.00
2023-04-16T08:49:04.756Z,494.00
2023-04-16T08:50:04.687Z,493.00
2023-04-16T08:51:04.634Z,489.00
2023-04-16T08:52:04.540Z,493.00
2023-04-16T08:53:04.465Z,493.00
2023-04-16T08:54:04.395Z,493.00
2023-04-16T08:55:04.319Z,494.00
2023-04-16T08:56:04.252Z,496.00
2023-04-16T08:57:04.183Z,492.00
2023-04-16T08:58:04.112Z,489.00
2023-04-16T08:59:04.051Z,472.00
2023-04-16T09:00:03.970Z,490.00
2023-04-16T09:01:03.954Z,491.00
2023-04-16T09:02:04.029Z,493.00
2023-04-16T09:03:03.779Z,489.00
2023-04-16T09:04:03.902Z,487.00
2023-04-16T09:05:03.593Z,487.00
2023-04-16T09:06:03.501Z,486.00
2023-04-16T09:07:03.442Z,489.00
2023-04-16T09:08:03.349Z,488.00
2023-04-16T09:09:03.284Z,488.00
2023-04-16T09:10:03.198Z,481.00
2023-04-16T09:11:03.130Z,479.00
2023-04-16T09:12:03.039Z,488.00
2023-04-16T09:13:02.962Z,488.00
2023-04-16T09:14:02.884Z,488.00
2023-04-16T09:15:02.871Z,488.00
2023-04-16T09:16:02.751Z,441.00
2023-04-16T09:17:02.626Z,484.00
2023-04-16T09:18:02.633Z,490.00
2023-04-16T09:19:02.468Z,491.00
2023-04-16T09:20:02.391Z,494.00
2023-04-16T09:21:02.309Z,496.00
2023-04-16T09:22:02.284Z,496.00
2023-04-16T09:23:02.253Z,495.00
2023-04-16T09:24:02.246Z,490.00
2023-04-16T09:25:02.185Z,487.00
2023-04-16T09:26:02.156Z,472.00
2023-04-16T09:27:02.095Z,488.00
2023-04-16T09:28:02.028Z,487.00
2023-04-16T09:29:01.959Z,492.00
2023-04-16T09:30:01.969Z,491.00
2023-04-16T09:31:01.844Z,494.00
2023-04-16T09:32:01.845Z,500.00
2023-04-16T09:33:01.798Z,475.00
2023-04-16T09:34:01.694Z,494.00
2023-04-16T09:35:01.610Z,493.00
2023-04-16T09:36:01.485Z,486.00
2023-04-16T09:37:01.425Z,496.00
2023-04-16T09:38:01.360Z,496.00
2023-04-16T09:39:01.285Z,495.00
2023-04-16T09:40:01.232Z,494.00
2023-04-16T09:41:01.155Z,492.00
2023-04-16T09:42:01.135Z,491.00
2023-04-16T09:43:01.095Z,493.00
2023-04-16T09:44:01.031Z,492.00
2023-04-16T09:45:04.075Z,495.00
2023-04-16T09:46:02.598Z,492.00
2023-04-16T09:47:00.983Z,483.00
2023-04-16T09:48:00.912Z,486.00
2023-04-16T09:49:00.802Z,483.00
2023-04-16T09:50:00.739Z,504.00
2023-04-16T09:51:00.632Z,450.00
2023-04-16T09:52:00.546Z,487.00
2023-04-16T09:53:00.446Z,490.00
2023-04-16T09:54:00.370Z,493.00
2023-04-16T09:55:00.288Z,493.00
2023-04-16T09:56:00.202Z,486.00
2023-04-16T09:57:00.134Z,487.00
2023-04-16T09:58:00.043Z,483.00
2023-04-16T09:58:59.932Z,478.00
2023-04-16T09:59:59.848Z,489.00
2023-04-16T10:00:59.815Z,474.00
2023-04-16T10:02:14.464Z,484.00
2023-04-16T10:02:59.660Z,478.00
2023-04-16T10:03:59.602Z,488.00
2023-04-16T10:04:59.397Z,483.00
2023-04-16T10:05:59.331Z,481.00
2023-04-16T10:06:59.239Z,484.00
2023-04-16T10:07:59.141Z,470.00
2023-04-16T10:08:59.053Z,479.00
2023-04-16T10:09:59.034Z,483.00
2023-04-16T10:10:58.869Z,466.00
2023-04-16T10:11:58.789Z,489.00
2023-04-16T10:12:58.701Z,484.00
2023-04-16T10:13:58.620Z,485.00
2023-04-16T10:14:58.594Z,491.00
2023-04-16T10:15:58.439Z,491.00
2023-04-16T10:16:58.360Z,489.00
2023-04-16T10:17:58.294Z,487.00
2023-04-16T10:18:58.152Z,491.00
2023-04-16T10:19:58.067Z,491.00
2023-04-16T10:20:57.966Z,488.00
2023-04-16T10:21:57.872Z,488.00
2023-04-16T10:22:57.754Z,491.00
2023-04-16T10:23:57.662Z,489.00
2023-04-16T10:24:57.561Z,489.00
2023-04-16T10:25:57.686Z,490.00
2023-04-16T10:26:57.366Z,490.00
2023-04-16T10:27:58.496Z,491.00
2023-04-16T10:28:57.161Z,492.00
2023-04-16T10:29:57.067Z,489.00
2023-04-16T10:30:56.990Z,486.00
2023-04-16T10:31:56.847Z,486.00
2023-04-16T10:32:58.302Z,486.00
2023-04-16T10:33:56.656Z,494.00
2023-04-16T10:34:56.558Z,484.00
2023-04-16T10:36:07.075Z,487.00
2023-04-16T10:36:56.327Z,496.00
2023-04-16T10:37:56.252Z,493.00
2023-04-16T10:38:56.130Z,497.00
2023-04-16T10:39:56.015Z,495.00
2023-04-16T10:40:55.911Z,492.00
2023-04-16T10:41:55.797Z,491.00
2023-04-16T10:42:55.692Z,488.00
2023-04-16T10:43:55.584Z,489.00
2023-04-16T10:44:55.496Z,488.00
2023-04-16T10:45:55.419Z,487.00
2023-04-16T10:46:55.313Z,480.00
2023-04-16T10:47:55.230Z,484.00
2023-04-16T10:48:55.090Z,479.00
2023-04-16T10:49:54.980Z,479.00
2023-04-16T10:50:54.894Z,480.00
2023-04-16T10:51:54.794Z,481.00
2023-04-16T10:52:54.710Z,476.00
2023-04-16T10:53:54.619Z,474.00
2023-04-16T10:54:54.507Z,485.00
2023-04-16T10:55:54.394Z,484.00
2023-04-16T10:56:54.296Z,487.00
2023-04-16T10:57:54.204Z,488.00
2023-04-16T10:58:54.112Z,480.00
2023-04-16T10:59:54.007Z,485.00
2023-04-16T11:00:53.921Z,489.00
2023-04-16T11:01:53.915Z,483.00
2023-04-16T11:02:53.785Z,463.00
2023-04-16T11:03:53.902Z,482.00
2023-04-16T11:04:53.565Z,481.00
2023-04-16T11:05:53.445Z,483.00
2023-04-16T11:06:53.385Z,482.00
2023-04-16T11:07:53.335Z,483.00
2023-04-16T11:08:55.284Z,481.00
2023-04-16T11:09:53.349Z,483.00
2023-04-16T11:10:53.090Z,487.00
2023-04-16T11:11:52.990Z,488.00
2023-04-16T11:12:52.895Z,484.00
2023-04-16T11:13:52.790Z,488.00
2023-04-16T11:14:52.688Z,487.00
2023-04-16T11:15:52.610Z,488.00
2023-04-16T11:16:52.510Z,489.00
2023-04-16T11:17:52.468Z,490.00
2023-04-16T11:18:52.466Z,489.00
2023-04-16T11:19:53.575Z,488.00
2023-04-16T11:20:52.181Z,485.00
2023-04-16T11:21:52.125Z,490.00
2023-04-16T11:22:52.094Z,493.00
2023-04-16T11:23:52.027Z,492.00
2023-04-16T11:24:51.978Z,415.00
2023-04-16T11:25:51.960Z,483.00
2023-04-16T11:26:51.873Z,484.00
2023-04-16T11:27:51.862Z,485.00
2023-04-16T11:28:51.767Z,486.00
2023-04-16T11:29:51.727Z,487.00
2023-04-16T11:30:51.653Z,488.00
2023-04-16T11:31:51.769Z,488.00
2023-04-16T11:32:51.577Z,491.00
2023-04-16T11:33:51.523Z,465.00
2023-04-16T11:34:51.465Z,492.00
2023-04-16T11:35:51.416Z,487.00
2023-04-16T11:36:51.446Z,485.00
2023-04-16T11:37:51.343Z,486.00
2023-04-16T11:38:51.296Z,490.00
2023-04-16T11:39:51.294Z,488.00
2023-04-16T11:40:51.203Z,487.00
2023-04-16T11:41:51.190Z,486.00
2023-04-16T11:42:51.131Z,485.00
2023-04-16T11:43:51.075Z,487.00
2023-04-16T11:44:51.028Z,487.00
2023-04-16T11:45:50.985Z,487.00
2023-04-16T11:46:50.998Z,487.00
2023-04-16T11:47:50.902Z,488.00
2023-04-16T11:48:50.850Z,488.00
2023-04-16T11:49:50.809Z,479.00
2023-04-16T11:50:50.845Z,484.00
2023-04-16T11:51:50.715Z,485.00
2023-04-16T11:52:50.658Z,485.00
2023-04-16T11:53:50.597Z,482.00
2023-04-16T11:54:50.547Z,484.00
2023-04-16T11:55:50.498Z,465.00
2023-04-16T11:56:50.450Z,484.00
2023-04-16T11:57:51.698Z,482.00
2023-04-16T11:58:50.288Z,481.00
2023-04-16T12:00:03.081Z,483.00
2023-04-16T12:00:50.063Z,475.00
2023-04-16T12:01:50.016Z,474.00
2023-04-16T12:02:50.084Z,480.00
2023-04-16T12:03:50.005Z,478.00
2023-04-16T12:04:49.677Z,482.00
2023-04-16T12:05:49.512Z,488.00
2023-04-16T12:06:49.380Z,478.00
2023-04-16T12:07:49.264Z,484.00
2023-04-16T12:08:49.146Z,484.00
2023-04-16T12:09:49.038Z,486.00
2023-04-16T12:10:48.914Z,490.00
2023-04-16T12:11:48.801Z,477.00
2023-04-16T12:12:48.689Z,484.00
2023-04-16T12:13:48.590Z,484.00
2023-04-16T12:14:48.443Z,484.00
2023-04-16T12:15:48.324Z,484.00
2023-04-16T12:16:48.342Z,491.00
2023-04-16T12:17:48.143Z,477.00
2023-04-16T12:18:47.987Z,473.00
2023-04-16T12:19:47.873Z,477.00
2023-04-16T12:20:47.753Z,480.00
2023-04-16T12:21:47.673Z,477.00
2023-04-16T12:22:47.540Z,473.00
2023-04-16T12:23:47.404Z,438.00
2023-04-16T12:24:47.295Z,473.00
2023-04-16T12:25:47.184Z,470.00
2023-04-16T12:26:47.072Z,472.00
2023-04-16T12:27:47.086Z,472.00
2023-04-16T12:28:46.861Z,476.00